SWA2953 KLAS-KORD
Flight info
| Callsign | SWA2953 |
|---|---|
| Flight time | N/A |
| Altitude | 33000 |
| Route | GIDGT3 TUKRR PUB/N0462F350 SLN J96 IRK BENKY6 |
| Aircraft | B738/M-SDE2E3FGHIRWXY/LB1 |
Departure
| Time | 2026-05-07 21:27 |
|---|---|
| Airport | Harry Reid International Airport (KLAS) |
Arrival
| Time | N/A |
|---|---|
| Airport | Chicago O'Hare International Airport (KORD) |
| Time | Latitude | Longitude | Altitude | Speed | Heading |
|---|---|---|---|---|---|
| 2026-05-07 20:53 | 36.08227 | -115.15102 | 2123 ft | 0 kts | 14° |
| 2026-05-07 21:14 | 36.08228 | -115.15102 | 2122 ft | 0 kts | 14° |
| 2026-05-07 21:14 | 36.08215 | -115.15104 | 2123 ft | 2 kts | 355° |
| 2026-05-07 21:15 | 36.08201 | -115.15100 | 2123 ft | 2 kts | 337° |
| 2026-05-07 21:15 | 36.08189 | -115.15090 | 2123 ft | 2 kts | 316° |
| 2026-05-07 21:15 | 36.08180 | -115.15076 | 2122 ft | 2 kts | 296° |
| 2026-05-07 21:15 | 36.08175 | -115.15057 | 2122 ft | 2 kts | 275° |
| 2026-05-07 21:16 | 36.08176 | -115.15039 | 2121 ft | 2 kts | 255° |
| 2026-05-07 21:16 | 36.08182 | -115.15022 | 2120 ft | 2 kts | 234° |
| 2026-05-07 21:16 | 36.08192 | -115.15009 | 2120 ft | 2 kts | 219° |
| 2026-05-07 21:16 | 36.08203 | -115.14997 | 2119 ft | 2 kts | 225° |
| 2026-05-07 21:17 | 36.08214 | -115.14984 | 2118 ft | 1 kts | 223° |
| 2026-05-07 21:17 | 36.08221 | -115.14976 | 2118 ft | 2 kts | 220° |
| 2026-05-07 21:17 | 36.08233 | -115.14965 | 2117 ft | 2 kts | 209° |
| 2026-05-07 21:17 | 36.08242 | -115.14959 | 2117 ft | 0 kts | 203° |
| 2026-05-07 21:18 | 36.08248 | -115.14956 | 2117 ft | 0 kts | 201° |
| 2026-05-07 21:18 | 36.08248 | -115.14957 | 2117 ft | 0 kts | 202° |
| 2026-05-07 21:20 | 36.08246 | -115.14957 | 2117 ft | 2 kts | 202° |
| 2026-05-07 21:20 | 36.08203 | -115.14968 | 2118 ft | 8 kts | 177° |
| 2026-05-07 21:20 | 36.08153 | -115.14954 | 2118 ft | 7 kts | 158° |
| 2026-05-07 21:20 | 36.08115 | -115.14933 | 2118 ft | 4 kts | 155° |
| 2026-05-07 21:21 | 36.08091 | -115.14919 | 2118 ft | 3 kts | 155° |
| 2026-05-07 21:21 | 36.08068 | -115.14906 | 2118 ft | 4 kts | 156° |
| 2026-05-07 21:21 | 36.08004 | -115.14871 | 2118 ft | 11 kts | 156° |
| 2026-05-07 21:21 | 36.07927 | -115.14829 | 2118 ft | 12 kts | 157° |
| 2026-05-07 21:22 | 36.07860 | -115.14762 | 2118 ft | 12 kts | 116° |
| 2026-05-07 21:22 | 36.07847 | -115.14642 | 2116 ft | 15 kts | 94° |
| 2026-05-07 21:22 | 36.07837 | -115.14494 | 2110 ft | 19 kts | 95° |
| 2026-05-07 21:22 | 36.07827 | -115.14312 | 2104 ft | 22 kts | 91° |
| 2026-05-07 21:23 | 36.07826 | -115.14112 | 2099 ft | 24 kts | 90° |
| 2026-05-07 21:23 | 36.07826 | -115.13893 | 2093 ft | 26 kts | 90° |
| 2026-05-07 21:23 | 36.07827 | -115.13654 | 2085 ft | 29 kts | 90° |
| 2026-05-07 21:23 | 36.07827 | -115.13438 | 2080 ft | 23 kts | 90° |
| 2026-05-07 21:24 | 36.07826 | -115.13223 | 2074 ft | 25 kts | 90° |
| 2026-05-07 21:24 | 36.07826 | -115.12989 | 2067 ft | 28 kts | 90° |
| 2026-05-07 21:24 | 36.07827 | -115.12742 | 2062 ft | 25 kts | 90° |
| 2026-05-07 21:24 | 36.07828 | -115.12513 | 2057 ft | 27 kts | 90° |
| 2026-05-07 21:25 | 36.07827 | -115.12300 | 2053 ft | 19 kts | 94° |
| 2026-05-07 21:25 | 36.07782 | -115.12193 | 2052 ft | 10 kts | 134° |
| 2026-05-07 21:25 | 36.07756 | -115.12162 | 2052 ft | 4 kts | 135° |
| 2026-05-07 21:25 | 36.07721 | -115.12129 | 2053 ft | 9 kts | 161° |
| 2026-05-07 21:26 | 36.07663 | -115.12129 | 2054 ft | 6 kts | 200° |
| 2026-05-07 21:26 | 36.07643 | -115.12170 | 2055 ft | 4 kts | 268° |
| 2026-05-07 21:26 | 36.07643 | -115.12206 | 2055 ft | 4 kts | 270° |
| 2026-05-07 21:26 | 36.07643 | -115.12406 | 2059 ft | 56 kts | 270° |
| 2026-05-07 21:27 | 36.07642 | -115.13191 | 2077 ft | 124 kts | 270° |
| 2026-05-07 21:27 | 36.07642 | -115.14503 | 2123 ft | 180 kts | 270° |
| 2026-05-07 21:27 | 36.07650 | -115.16043 | 2811 ft | 182 kts | 272° |
| 2026-05-07 21:27 | 36.07670 | -115.17655 | 3396 ft | 193 kts | 272° |
| 2026-05-07 21:28 | 36.07673 | -115.19330 | 3962 ft | 202 kts | 271° |
| 2026-05-07 21:28 | 36.07673 | -115.21101 | 4461 ft | 216 kts | 271° |
| 2026-05-07 21:28 | 36.07668 | -115.23027 | 5007 ft | 229 kts | 271° |
| 2026-05-07 21:28 | 36.07716 | -115.25041 | 5579 ft | 241 kts | 277° |
| 2026-05-07 21:29 | 36.08147 | -115.27045 | 6293 ft | 245 kts | 299° |
| 2026-05-07 21:29 | 36.09238 | -115.28591 | 7014 ft | 248 kts | 326° |
| 2026-05-07 21:29 | 36.10882 | -115.29405 | 7546 ft | 261 kts | 348° |
| 2026-05-07 21:29 | 36.12651 | -115.29700 | 8377 ft | 260 kts | 357° |
| 2026-05-07 21:30 | 36.14452 | -115.29519 | 9111 ft | 264 kts | 16° |
| 2026-05-07 21:30 | 36.16065 | -115.28394 | 9691 ft | 275 kts | 42° |
| 2026-05-07 21:30 | 36.17225 | -115.26450 | 10136 ft | 292 kts | 61° |
| 2026-05-07 21:30 | 36.18101 | -115.24096 | 10587 ft | 308 kts | 66° |
| 2026-05-07 21:31 | 36.18869 | -115.21566 | 11049 ft | 323 kts | 69° |
| 2026-05-07 21:31 | 36.19523 | -115.18858 | 11496 ft | 339 kts | 78° |
| 2026-05-07 21:31 | 36.19686 | -115.15894 | 11915 ft | 355 kts | 88° |
| 2026-05-07 21:31 | 36.19685 | -115.12798 | 12317 ft | 370 kts | 89° |
| 2026-05-07 21:32 | 36.19664 | -115.09544 | 12770 ft | 382 kts | 88° |
| 2026-05-07 21:32 | 36.19646 | -115.06276 | 13576 ft | 384 kts | 88° |
| 2026-05-07 21:32 | 36.19633 | -115.02951 | 14279 ft | 388 kts | 88° |
| 2026-05-07 21:32 | 36.19626 | -114.99608 | 14961 ft | 393 kts | 88° |
| 2026-05-07 21:33 | 36.19622 | -114.96246 | 15705 ft | 395 kts | 87° |
| 2026-05-07 21:33 | 36.19619 | -114.92842 | 16384 ft | 399 kts | 87° |
| 2026-05-07 21:33 | 36.19616 | -114.89424 | 17076 ft | 402 kts | 87° |
| 2026-05-07 21:33 | 36.19613 | -114.85940 | 17738 ft | 406 kts | 87° |
| 2026-05-07 21:34 | 36.19609 | -114.82459 | 18391 ft | 409 kts | 87° |
| 2026-05-07 21:34 | 36.19604 | -114.78927 | 19012 ft | 413 kts | 87° |
| 2026-05-07 21:34 | 36.19597 | -114.75402 | 19660 ft | 416 kts | 87° |
| 2026-05-07 21:34 | 36.19589 | -114.71783 | 20264 ft | 420 kts | 87° |
| 2026-05-07 21:35 | 36.19580 | -114.68173 | 20879 ft | 423 kts | 87° |
| 2026-05-07 21:35 | 36.19571 | -114.64521 | 21455 ft | 427 kts | 87° |
| 2026-05-07 21:35 | 36.19562 | -114.60852 | 22037 ft | 430 kts | 86° |
| 2026-05-07 21:35 | 36.19553 | -114.57173 | 22594 ft | 433 kts | 86° |
| 2026-05-07 21:36 | 36.19544 | -114.53424 | 23177 ft | 436 kts | 86° |
| 2026-05-07 21:36 | 36.19532 | -114.49654 | 23743 ft | 439 kts | 86° |
| 2026-05-07 21:36 | 36.19521 | -114.45881 | 24290 ft | 442 kts | 86° |
| 2026-05-07 21:36 | 36.19507 | -114.42109 | 24831 ft | 445 kts | 86° |
| 2026-05-07 21:37 | 36.19491 | -114.38257 | 25383 ft | 447 kts | 86° |
| 2026-05-07 21:37 | 36.19475 | -114.34432 | 25831 ft | 450 kts | 87° |
| 2026-05-07 21:37 | 36.19457 | -114.30551 | 26315 ft | 453 kts | 87° |
| 2026-05-07 21:37 | 36.19457 | -114.26636 | 26807 ft | 455 kts | 86° |
| 2026-05-07 21:38 | 36.19608 | -114.22798 | 27307 ft | 455 kts | 82° |
| 2026-05-07 21:38 | 36.19939 | -114.18882 | 27771 ft | 456 kts | 79° |
| 2026-05-07 21:38 | 36.20365 | -114.15018 | 28212 ft | 458 kts | 78° |
| 2026-05-07 21:38 | 36.20841 | -114.11126 | 28854 ft | 455 kts | 78° |
| 2026-05-07 21:39 | 36.21329 | -114.07253 | 29592 ft | 450 kts | 77° |
| 2026-05-07 21:39 | 36.21809 | -114.03454 | 30175 ft | 449 kts | 77° |
| 2026-05-07 21:39 | 36.22290 | -113.99600 | 30664 ft | 449 kts | 77° |
| 2026-05-07 21:39 | 36.22761 | -113.95785 | 31160 ft | 448 kts | 78° |
| 2026-05-07 21:40 | 36.23377 | -113.90711 | 31820 ft | 447 kts | 78° |
| 2026-05-07 21:40 | 36.23680 | -113.88182 | 32148 ft | 446 kts | 78° |
| 2026-05-07 21:40 | 36.24125 | -113.84434 | 32671 ft | 444 kts | 78° |
| 2026-05-07 21:40 | 36.24569 | -113.80666 | 33082 ft | 444 kts | 78° |
| 2026-05-07 21:41 | 36.25457 | -113.73082 | 33174 ft | 445 kts | 78° |
| 2026-05-07 21:41 | 36.26334 | -113.65493 | 33183 ft | 443 kts | 78° |
| 2026-05-07 21:42 | 36.27203 | -113.57965 | 33191 ft | 444 kts | 78° |
| 2026-05-07 21:42 | 36.28068 | -113.50402 | 33206 ft | 444 kts | 78° |
| 2026-05-07 21:43 | 36.28924 | -113.42877 | 33210 ft | 443 kts | 78° |
| 2026-05-07 21:43 | 36.29781 | -113.35307 | 33210 ft | 443 kts | 78° |
| 2026-05-07 21:44 | 36.30650 | -113.27773 | 33210 ft | 443 kts | 77° |
| 2026-05-07 21:44 | 36.32044 | -113.20372 | 33219 ft | 438 kts | 68° |
| 2026-05-07 21:45 | 36.34258 | -113.13384 | 33226 ft | 436 kts | 63° |
| 2026-05-07 21:45 | 36.36718 | -113.06534 | 33226 ft | 436 kts | 63° |
| 2026-05-07 21:46 | 36.39185 | -112.99720 | 33233 ft | 436 kts | 63° |
| 2026-05-07 21:46 | 36.41648 | -112.92818 | 33244 ft | 436 kts | 63° |
| 2026-05-07 21:47 | 36.44082 | -112.85915 | 33241 ft | 437 kts | 63° |
| 2026-05-07 21:47 | 36.46485 | -112.79052 | 33240 ft | 436 kts | 63° |
| 2026-05-07 21:48 | 36.48892 | -112.72146 | 33238 ft | 438 kts | 63° |
| 2026-05-07 21:48 | 36.51307 | -112.65202 | 33238 ft | 439 kts | 63° |
| 2026-05-07 21:49 | 36.53727 | -112.58223 | 33241 ft | 438 kts | 63° |
| 2026-05-07 21:49 | 36.56123 | -112.51298 | 33242 ft | 438 kts | 63° |
| 2026-05-07 21:50 | 36.58528 | -112.44331 | 33247 ft | 438 kts | 63° |
| 2026-05-07 21:50 | 36.60921 | -112.37382 | 33258 ft | 438 kts | 63° |
| 2026-05-07 21:51 | 36.63306 | -112.30441 | 33269 ft | 439 kts | 64° |
| 2026-05-07 21:51 | 36.65701 | -112.23456 | 33273 ft | 441 kts | 64° |
| 2026-05-07 21:52 | 36.68102 | -112.16437 | 33258 ft | 440 kts | 64° |
| 2026-05-07 21:52 | 36.70491 | -112.09435 | 33239 ft | 440 kts | 64° |
| 2026-05-07 21:53 | 36.72861 | -112.02472 | 33227 ft | 440 kts | 63° |
| 2026-05-07 21:53 | 36.75245 | -111.95450 | 33220 ft | 439 kts | 64° |
| 2026-05-07 21:54 | 36.77613 | -111.88464 | 33210 ft | 441 kts | 64° |
| 2026-05-07 21:54 | 36.80009 | -111.81382 | 33201 ft | 444 kts | 64° |
| 2026-05-07 21:55 | 36.82386 | -111.74332 | 33196 ft | 442 kts | 64° |
| 2026-05-07 21:55 | 36.84761 | -111.67275 | 33197 ft | 443 kts | 64° |
| 2026-05-07 21:56 | 36.86819 | -111.60048 | 33189 ft | 446 kts | 69° |
| 2026-05-07 21:56 | 36.88528 | -111.52582 | 33173 ft | 447 kts | 71° |
| 2026-05-07 21:57 | 36.90174 | -111.45164 | 33153 ft | 447 kts | 70° |
| 2026-05-07 21:57 | 36.91855 | -111.37698 | 33147 ft | 448 kts | 70° |
| 2026-05-07 21:58 | 36.93559 | -111.30210 | 33154 ft | 448 kts | 71° |
| 2026-05-07 21:58 | 36.95270 | -111.22742 | 33161 ft | 448 kts | 70° |
| 2026-05-07 21:59 | 36.96981 | -111.15274 | 33172 ft | 449 kts | 70° |
| 2026-05-07 21:59 | 36.98695 | -111.07774 | 33181 ft | 449 kts | 70° |
| 2026-05-07 22:00 | 37.00407 | -111.00265 | 33186 ft | 450 kts | 71° |
| 2026-05-07 22:00 | 37.02105 | -110.92793 | 33194 ft | 449 kts | 71° |
| 2026-05-07 22:01 | 37.03804 | -110.85299 | 33198 ft | 450 kts | 70° |
| 2026-05-07 22:01 | 37.05506 | -110.77767 | 33205 ft | 450 kts | 70° |
| 2026-05-07 22:02 | 37.07197 | -110.70255 | 33206 ft | 451 kts | 70° |
| 2026-05-07 22:02 | 37.08885 | -110.62735 | 33198 ft | 451 kts | 70° |
| 2026-05-07 22:03 | 37.10581 | -110.55157 | 33195 ft | 452 kts | 70° |
| 2026-05-07 22:03 | 37.12264 | -110.47609 | 33188 ft | 452 kts | 70° |
| 2026-05-07 22:04 | 37.13941 | -110.40059 | 33186 ft | 453 kts | 70° |
| 2026-05-07 22:04 | 37.15629 | -110.32440 | 33185 ft | 453 kts | 71° |
| 2026-05-07 22:05 | 37.17296 | -110.24887 | 33189 ft | 454 kts | 71° |
| 2026-05-07 22:05 | 37.18969 | -110.17280 | 33196 ft | 452 kts | 71° |
| 2026-05-07 22:06 | 37.20647 | -110.09631 | 33206 ft | 456 kts | 71° |
| 2026-05-07 22:06 | 37.22307 | -110.02034 | 33213 ft | 454 kts | 70° |
| 2026-05-07 22:07 | 37.23968 | -109.94412 | 33214 ft | 455 kts | 71° |
| 2026-05-07 22:07 | 37.25631 | -109.86748 | 33212 ft | 455 kts | 71° |
| 2026-05-07 22:08 | 37.27287 | -109.79097 | 33205 ft | 456 kts | 70° |
| 2026-05-07 22:08 | 37.28925 | -109.71502 | 33197 ft | 456 kts | 70° |
| 2026-05-07 22:09 | 37.30580 | -109.63802 | 33193 ft | 456 kts | 71° |
| 2026-05-07 22:09 | 37.32221 | -109.56139 | 33191 ft | 457 kts | 71° |
| 2026-05-07 22:10 | 37.33854 | -109.48481 | 33188 ft | 455 kts | 70° |
| 2026-05-07 22:10 | 37.35492 | -109.40772 | 33189 ft | 458 kts | 70° |
| 2026-05-07 22:11 | 37.37123 | -109.33077 | 33184 ft | 458 kts | 71° |
| 2026-05-07 22:11 | 37.38751 | -109.25377 | 33186 ft | 457 kts | 71° |
| 2026-05-07 22:12 | 37.40382 | -109.17617 | 33195 ft | 458 kts | 71° |
| 2026-05-07 22:12 | 37.41992 | -109.09940 | 33200 ft | 459 kts | 71° |
| 2026-05-07 22:13 | 37.43608 | -109.02210 | 33205 ft | 459 kts | 71° |
| 2026-05-07 22:13 | 37.45222 | -108.94462 | 33215 ft | 459 kts | 71° |
| 2026-05-07 22:14 | 37.46835 | -108.86686 | 33220 ft | 458 kts | 71° |
| 2026-05-07 22:14 | 37.48433 | -108.78962 | 33224 ft | 460 kts | 71° |
| 2026-05-07 22:15 | 37.50031 | -108.71202 | 33238 ft | 460 kts | 71° |
| 2026-05-07 22:15 | 37.51630 | -108.63407 | 33242 ft | 461 kts | 71° |
| 2026-05-07 22:16 | 37.53223 | -108.55620 | 33262 ft | 461 kts | 71° |
| 2026-05-07 22:16 | 37.54812 | -108.47823 | 33281 ft | 462 kts | 71° |
| 2026-05-07 22:17 | 37.56401 | -108.39996 | 33285 ft | 461 kts | 71° |
| 2026-05-07 22:17 | 37.57973 | -108.32223 | 33291 ft | 462 kts | 71° |
| 2026-05-07 22:18 | 37.60341 | -108.20468 | 33299 ft | 463 kts | 71° |
| 2026-05-07 22:19 | 37.61917 | -108.12602 | 33304 ft | 464 kts | 71° |
| 2026-05-07 22:19 | 37.63487 | -108.04737 | 33306 ft | 463 kts | 71° |
| 2026-05-07 22:20 | 37.65046 | -107.96899 | 33312 ft | 464 kts | 71° |
| 2026-05-07 22:20 | 37.66605 | -107.89030 | 33323 ft | 463 kts | 71° |
| 2026-05-07 22:21 | 37.68163 | -107.81147 | 33340 ft | 464 kts | 71° |
| 2026-05-07 22:21 | 37.69709 | -107.73288 | 33332 ft | 465 kts | 71° |
| 2026-05-07 22:22 | 37.71257 | -107.65391 | 33337 ft | 466 kts | 71° |
| 2026-05-07 22:22 | 37.72803 | -107.57461 | 33351 ft | 465 kts | 71° |
| 2026-05-07 22:23 | 37.74344 | -107.49538 | 33352 ft | 467 kts | 71° |
| 2026-05-07 22:23 | 37.75887 | -107.41573 | 33367 ft | 467 kts | 71° |
| 2026-05-07 22:24 | 37.77417 | -107.33643 | 33380 ft | 467 kts | 72° |
| 2026-05-07 22:24 | 37.78950 | -107.25670 | 33392 ft | 468 kts | 72° |
| 2026-05-07 22:25 | 37.80468 | -107.17735 | 33407 ft | 467 kts | 72° |
| 2026-05-07 22:25 | 37.81992 | -107.09743 | 33412 ft | 468 kts | 72° |
| 2026-05-07 22:26 | 37.83505 | -107.01778 | 33421 ft | 468 kts | 72° |
| 2026-05-07 22:26 | 37.85028 | -106.93733 | 33406 ft | 471 kts | 72° |
| 2026-05-07 22:27 | 37.86530 | -106.85751 | 33387 ft | 470 kts | 72° |
| 2026-05-07 22:27 | 37.88039 | -106.77711 | 33388 ft | 471 kts | 72° |
| 2026-05-07 22:28 | 37.89556 | -106.69604 | 33364 ft | 471 kts | 72° |
| 2026-05-07 22:28 | 37.91056 | -106.61542 | 33354 ft | 472 kts | 72° |
| 2026-05-07 22:29 | 37.92542 | -106.53523 | 33344 ft | 472 kts | 72° |
| 2026-05-07 22:29 | 37.94039 | -106.45409 | 33330 ft | 474 kts | 72° |
| 2026-05-07 22:30 | 37.95528 | -106.37311 | 33320 ft | 473 kts | 72° |
| 2026-05-07 22:30 | 37.97011 | -106.29225 | 33304 ft | 475 kts | 73° |
| 2026-05-07 22:31 | 37.98492 | -106.21116 | 33306 ft | 475 kts | 72° |
| 2026-05-07 22:31 | 37.99974 | -106.12969 | 33299 ft | 475 kts | 72° |
| 2026-05-07 22:32 | 38.01466 | -106.04731 | 33290 ft | 478 kts | 72° |
| 2026-05-07 22:32 | 38.02935 | -105.96563 | 33261 ft | 479 kts | 72° |
| 2026-05-07 22:33 | 38.04404 | -105.88351 | 33255 ft | 477 kts | 72° |
| 2026-05-07 22:33 | 38.05869 | -105.80145 | 33262 ft | 479 kts | 72° |
| 2026-05-07 22:34 | 38.07329 | -105.71936 | 33259 ft | 479 kts | 72° |
| 2026-05-07 22:34 | 38.08781 | -105.63736 | 33265 ft | 479 kts | 72° |
| 2026-05-07 22:35 | 38.10232 | -105.55506 | 33268 ft | 479 kts | 72° |
| 2026-05-07 22:35 | 38.11684 | -105.47224 | 33263 ft | 479 kts | 72° |
| 2026-05-07 22:36 | 38.13115 | -105.39028 | 33261 ft | 479 kts | 73° |
| 2026-05-07 22:36 | 38.14559 | -105.30732 | 33263 ft | 481 kts | 73° |
| 2026-05-07 22:37 | 38.15987 | -105.22486 | 33259 ft | 481 kts | 73° |
| 2026-05-07 22:37 | 38.17424 | -105.14150 | 33255 ft | 483 kts | 73° |
| 2026-05-07 22:38 | 38.18843 | -105.05872 | 33237 ft | 483 kts | 73° |
| 2026-05-07 22:38 | 38.20262 | -104.97564 | 33214 ft | 483 kts | 73° |
| 2026-05-07 22:39 | 38.21683 | -104.89204 | 33212 ft | 482 kts | 73° |
| 2026-05-07 22:39 | 38.23089 | -104.80912 | 33186 ft | 484 kts | 73° |
| 2026-05-07 22:40 | 38.24492 | -104.72594 | 33166 ft | 482 kts | 73° |
| 2026-05-07 22:40 | 38.25897 | -104.64223 | 33121 ft | 485 kts | 73° |
| 2026-05-07 22:41 | 38.27301 | -104.55820 | 33087 ft | 486 kts | 73° |
| 2026-05-07 22:41 | 38.28691 | -104.47469 | 33061 ft | 487 kts | 73° |
| 2026-05-07 22:42 | 38.30040 | -104.39020 | 33063 ft | 486 kts | 75° |
| 2026-05-07 22:42 | 38.31116 | -104.30481 | 33074 ft | 490 kts | 77° |
| 2026-05-07 22:43 | 38.32089 | -104.21941 | 33086 ft | 490 kts | 77° |
| 2026-05-07 22:43 | 38.33068 | -104.13357 | 33095 ft | 489 kts | 77° |
| 2026-05-07 22:44 | 38.34060 | -104.04839 | 33082 ft | 488 kts | 77° |
| 2026-05-07 22:44 | 38.35068 | -103.96265 | 33083 ft | 491 kts | 77° |
| 2026-05-07 22:45 | 38.36076 | -103.87678 | 33066 ft | 491 kts | 77° |
| 2026-05-07 22:45 | 38.37078 | -103.79118 | 33065 ft | 492 kts | 77° |
| 2026-05-07 22:46 | 38.38081 | -103.70519 | 33057 ft | 491 kts | 77° |
| 2026-05-07 22:46 | 38.39074 | -103.61963 | 33063 ft | 493 kts | 77° |
| 2026-05-07 22:47 | 38.40066 | -103.53354 | 33061 ft | 492 kts | 77° |
| 2026-05-07 22:47 | 38.41058 | -103.44680 | 33057 ft | 494 kts | 77° |
| 2026-05-07 22:48 | 38.42037 | -103.36025 | 33052 ft | 493 kts | 77° |
| 2026-05-07 22:48 | 38.43010 | -103.27392 | 33051 ft | 495 kts | 78° |
| 2026-05-07 22:49 | 38.43979 | -103.18749 | 33047 ft | 494 kts | 77° |
| 2026-05-07 22:49 | 38.44944 | -103.10088 | 33047 ft | 494 kts | 78° |
| 2026-05-07 22:50 | 38.45895 | -103.01478 | 33045 ft | 494 kts | 78° |
| 2026-05-07 22:50 | 38.46849 | -102.92776 | 33037 ft | 496 kts | 78° |
| 2026-05-07 22:51 | 38.47792 | -102.84087 | 33038 ft | 495 kts | 78° |
| 2026-05-07 22:51 | 38.48733 | -102.75376 | 33032 ft | 498 kts | 77° |
| 2026-05-07 22:52 | 38.49670 | -102.66655 | 33031 ft | 497 kts | 77° |
| 2026-05-07 22:52 | 38.50599 | -102.57966 | 33026 ft | 498 kts | 78° |
| 2026-05-07 22:53 | 38.51524 | -102.49219 | 33020 ft | 499 kts | 78° |
| 2026-05-07 22:53 | 38.52441 | -102.40511 | 33016 ft | 500 kts | 78° |
| 2026-05-07 22:54 | 38.53356 | -102.31729 | 33012 ft | 501 kts | 78° |
| 2026-05-07 22:54 | 38.54268 | -102.22920 | 33011 ft | 501 kts | 78° |
| 2026-05-07 22:55 | 38.55172 | -102.14128 | 33010 ft | 502 kts | 78° |
| 2026-05-07 22:55 | 38.56227 | -102.03796 | 33004 ft | 502 kts | 78° |
| 2026-05-07 22:56 | 38.56968 | -101.96449 | 32999 ft | 503 kts | 79° |
| 2026-05-07 22:56 | 38.57855 | -101.87597 | 32993 ft | 503 kts | 79° |
| 2026-05-07 22:57 | 38.58738 | -101.78728 | 32988 ft | 505 kts | 78° |
| 2026-05-07 22:57 | 38.59618 | -101.69867 | 32980 ft | 506 kts | 78° |
| 2026-05-07 22:58 | 38.60495 | -101.60930 | 32985 ft | 506 kts | 78° |
| 2026-05-07 22:58 | 38.61362 | -101.52029 | 32980 ft | 507 kts | 79° |
| 2026-05-07 22:59 | 38.62226 | -101.43072 | 33297 ft | 512 kts | 79° |
| 2026-05-07 22:59 | 38.62660 | -101.38549 | 33881 ft | 509 kts | 79° |
| 2026-05-07 22:59 | 38.63081 | -101.34113 | 34456 ft | 504 kts | 79° |
| 2026-05-07 22:59 | 38.63503 | -101.29667 | 34704 ft | 506 kts | 80° |
| 2026-05-07 23:00 | 38.63925 | -101.25225 | 34903 ft | 509 kts | 79° |
| 2026-05-07 23:00 | 38.64778 | -101.16182 | 34963 ft | 512 kts | 80° |
| 2026-05-07 23:01 | 38.65609 | -101.07247 | 34965 ft | 509 kts | 80° |
| 2026-05-07 23:01 | 38.66444 | -100.98244 | 34965 ft | 512 kts | 80° |
| 2026-05-07 23:02 | 38.67275 | -100.89204 | 34960 ft | 511 kts | 80° |
| 2026-05-07 23:02 | 38.68094 | -100.80217 | 34958 ft | 512 kts | 80° |
| 2026-05-07 23:03 | 38.68911 | -100.71183 | 34944 ft | 513 kts | 80° |
| 2026-05-07 23:03 | 38.69720 | -100.62136 | 34946 ft | 513 kts | 80° |
| 2026-05-07 23:04 | 38.70524 | -100.53057 | 34938 ft | 516 kts | 80° |
| 2026-05-07 23:04 | 38.71321 | -100.43959 | 34931 ft | 515 kts | 80° |
| 2026-05-07 23:05 | 38.72113 | -100.34862 | 34933 ft | 517 kts | 81° |
| 2026-05-07 23:05 | 38.72904 | -100.25714 | 34935 ft | 518 kts | 81° |
| 2026-05-07 23:06 | 38.73683 | -100.16624 | 34933 ft | 519 kts | 81° |
| 2026-05-07 23:06 | 38.74464 | -100.07399 | 34925 ft | 520 kts | 82° |
| 2026-05-07 23:07 | 38.75354 | -99.96755 | 34926 ft | 519 kts | 82° |
| 2026-05-07 23:07 | 38.75990 | -99.89074 | 34917 ft | 521 kts | 82° |
| 2026-05-07 23:08 | 38.76747 | -99.79868 | 34919 ft | 523 kts | 82° |
| 2026-05-07 23:08 | 38.77499 | -99.70642 | 34909 ft | 523 kts | 82° |
| 2026-05-07 23:09 | 38.78247 | -99.61375 | 34912 ft | 524 kts | 82° |
| 2026-05-07 23:09 | 38.78986 | -99.52119 | 34904 ft | 523 kts | 82° |
| 2026-05-07 23:10 | 38.79721 | -99.42847 | 34899 ft | 525 kts | 82° |
| 2026-05-07 23:10 | 38.80444 | -99.33622 | 34900 ft | 524 kts | 83° |
| 2026-05-07 23:11 | 38.81167 | -99.24268 | 34901 ft | 527 kts | 83° |
| 2026-05-07 23:11 | 38.81876 | -99.15012 | 34900 ft | 526 kts | 83° |
| 2026-05-07 23:12 | 38.82587 | -99.05656 | 34891 ft | 528 kts | 83° |
| 2026-05-07 23:12 | 38.83285 | -98.96339 | 34886 ft | 528 kts | 83° |
| 2026-05-07 23:13 | 38.83982 | -98.86935 | 34889 ft | 530 kts | 83° |
| 2026-05-07 23:13 | 38.84666 | -98.77619 | 34888 ft | 529 kts | 83° |
| 2026-05-07 23:14 | 38.85349 | -98.68230 | 34892 ft | 531 kts | 83° |
| 2026-05-07 23:14 | 38.86028 | -98.58792 | 34877 ft | 531 kts | 83° |
| 2026-05-07 23:15 | 38.86695 | -98.49403 | 34883 ft | 532 kts | 83° |
| 2026-05-07 23:15 | 38.87353 | -98.40003 | 34875 ft | 532 kts | 83° |
| 2026-05-07 23:16 | 38.88009 | -98.30524 | 34875 ft | 533 kts | 84° |
| 2026-05-07 23:16 | 38.88656 | -98.21079 | 34865 ft | 534 kts | 84° |
| 2026-05-07 23:17 | 38.89299 | -98.11591 | 34863 ft | 534 kts | 84° |
| 2026-05-07 23:17 | 38.89933 | -98.02091 | 34874 ft | 535 kts | 84° |
| 2026-05-07 23:18 | 38.90556 | -97.92652 | 34882 ft | 536 kts | 85° |
| 2026-05-07 23:18 | 38.91175 | -97.83157 | 34884 ft | 536 kts | 84° |
| 2026-05-07 23:19 | 38.91790 | -97.73641 | 34883 ft | 536 kts | 85° |
| 2026-05-07 23:19 | 38.92587 | -97.64146 | 34883 ft | 538 kts | 79° |
| 2026-05-07 23:20 | 38.94279 | -97.54819 | 34881 ft | 534 kts | 71° |
| 2026-05-07 23:20 | 38.96574 | -97.45780 | 34877 ft | 534 kts | 68° |
| 2026-05-07 23:21 | 38.99065 | -97.36821 | 34877 ft | 535 kts | 67° |
| 2026-05-07 23:21 | 39.01550 | -97.27834 | 34875 ft | 534 kts | 68° |
| 2026-05-07 23:22 | 39.03975 | -97.18824 | 34888 ft | 536 kts | 69° |
| 2026-05-07 23:22 | 39.06351 | -97.09815 | 34872 ft | 535 kts | 69° |
| 2026-05-07 23:23 | 39.08722 | -97.00717 | 34864 ft | 536 kts | 69° |
| 2026-05-07 23:23 | 39.11064 | -96.91673 | 34874 ft | 537 kts | 69° |
| 2026-05-07 23:24 | 39.13418 | -96.82564 | 34875 ft | 536 kts | 69° |
| 2026-05-07 23:24 | 39.15762 | -96.73460 | 34881 ft | 539 kts | 69° |
| 2026-05-07 23:25 | 39.18115 | -96.64298 | 34881 ft | 538 kts | 69° |
| 2026-05-07 23:25 | 39.20444 | -96.55202 | 34886 ft | 539 kts | 69° |
| 2026-05-07 23:26 | 39.22792 | -96.46005 | 34890 ft | 539 kts | 69° |
| 2026-05-07 23:26 | 39.25120 | -96.36842 | 34881 ft | 540 kts | 69° |
| 2026-05-07 23:27 | 39.28610 | -96.23040 | 34878 ft | 542 kts | 70° |
| 2026-05-07 23:27 | 39.30925 | -96.13825 | 34879 ft | 541 kts | 70° |
| 2026-05-07 23:28 | 39.33232 | -96.04615 | 34887 ft | 542 kts | 70° |
| 2026-05-07 23:28 | 39.35533 | -95.95402 | 34887 ft | 541 kts | 70° |
| 2026-05-07 23:29 | 39.37844 | -95.86114 | 34882 ft | 541 kts | 70° |
| 2026-05-07 23:29 | 39.40126 | -95.76914 | 34882 ft | 542 kts | 69° |
| 2026-05-07 23:30 | 39.42407 | -95.67673 | 34882 ft | 541 kts | 70° |
| 2026-05-07 23:30 | 39.44688 | -95.58404 | 34879 ft | 541 kts | 70° |
| 2026-05-07 23:31 | 39.46963 | -95.49112 | 34879 ft | 541 kts | 70° |
| 2026-05-07 23:31 | 39.49224 | -95.39848 | 34882 ft | 543 kts | 69° |
| 2026-05-07 23:32 | 39.51477 | -95.30588 | 34883 ft | 543 kts | 70° |
| 2026-05-07 23:32 | 39.53733 | -95.21271 | 34889 ft | 542 kts | 70° |
| 2026-05-07 23:33 | 39.55962 | -95.12023 | 34886 ft | 542 kts | 70° |
| 2026-05-07 23:33 | 39.58204 | -95.02696 | 34887 ft | 544 kts | 70° |
| 2026-05-07 23:34 | 39.60443 | -94.93332 | 34889 ft | 543 kts | 70° |
| 2026-05-07 23:34 | 39.62656 | -94.84036 | 34890 ft | 543 kts | 70° |
| 2026-05-07 23:35 | 39.64875 | -94.74687 | 34890 ft | 544 kts | 70° |
| 2026-05-07 23:35 | 39.67084 | -94.65345 | 34880 ft | 544 kts | 70° |
| 2026-05-07 23:36 | 39.69290 | -94.55985 | 34887 ft | 545 kts | 70° |
| 2026-05-07 23:36 | 39.71489 | -94.46603 | 34889 ft | 543 kts | 69° |
| 2026-05-07 23:37 | 39.73667 | -94.37274 | 34891 ft | 543 kts | 69° |
| 2026-05-07 23:37 | 39.75851 | -94.27901 | 34903 ft | 544 kts | 70° |
| 2026-05-07 23:38 | 39.78025 | -94.18510 | 34908 ft | 543 kts | 70° |
| 2026-05-07 23:38 | 39.80187 | -94.09129 | 34908 ft | 543 kts | 70° |
| 2026-05-07 23:39 | 39.82340 | -93.99740 | 34894 ft | 543 kts | 70° |
| 2026-05-07 23:39 | 39.84492 | -93.90310 | 34890 ft | 542 kts | 70° |
| 2026-05-07 23:40 | 39.86624 | -93.80934 | 34892 ft | 545 kts | 70° |
| 2026-05-07 23:40 | 39.88752 | -93.71532 | 34888 ft | 543 kts | 70° |
| 2026-05-07 23:41 | 39.90874 | -93.62126 | 34896 ft | 542 kts | 70° |
| 2026-05-07 23:41 | 39.92981 | -93.52756 | 34900 ft | 542 kts | 70° |
| 2026-05-07 23:42 | 39.95083 | -93.43359 | 34899 ft | 542 kts | 69° |
| 2026-05-07 23:42 | 39.97174 | -93.33954 | 34907 ft | 542 kts | 70° |
| 2026-05-07 23:43 | 39.99264 | -93.24533 | 34903 ft | 541 kts | 70° |
| 2026-05-07 23:43 | 40.01337 | -93.15153 | 34905 ft | 542 kts | 70° |
| 2026-05-07 23:44 | 40.03406 | -93.05751 | 34907 ft | 541 kts | 70° |
| 2026-05-07 23:44 | 40.05460 | -92.96366 | 34896 ft | 540 kts | 70° |
| 2026-05-07 23:45 | 40.07526 | -92.86899 | 34899 ft | 541 kts | 70° |
| 2026-05-07 23:45 | 40.09558 | -92.77533 | 34899 ft | 537 kts | 70° |
| 2026-05-07 23:46 | 40.11582 | -92.68171 | 34908 ft | 538 kts | 70° |
| 2026-05-07 23:46 | 40.13792 | -92.58926 | 34915 ft | 534 kts | 65° |
| 2026-05-07 23:47 | 40.16653 | -92.50012 | 34918 ft | 528 kts | 60° |
| 2026-05-07 23:47 | 40.19794 | -92.41367 | 34919 ft | 530 kts | 58° |
| 2026-05-07 23:48 | 40.23002 | -92.32734 | 34909 ft | 526 kts | 59° |
| 2026-05-07 23:48 | 40.26158 | -92.24130 | 34912 ft | 526 kts | 59° |
| 2026-05-07 23:49 | 40.29274 | -92.15519 | 34907 ft | 526 kts | 59° |
| 2026-05-07 23:49 | 40.32395 | -92.06819 | 34909 ft | 525 kts | 59° |
| 2026-05-07 23:50 | 40.35465 | -91.98212 | 34916 ft | 526 kts | 60° |
| 2026-05-07 23:50 | 40.38536 | -91.89563 | 34908 ft | 523 kts | 59° |
| 2026-05-07 23:51 | 40.41605 | -91.80901 | 34911 ft | 524 kts | 59° |
| 2026-05-07 23:51 | 40.44625 | -91.72266 | 34916 ft | 523 kts | 60° |
| 2026-05-07 23:52 | 40.47580 | -91.63563 | 34756 ft | 524 kts | 60° |
| 2026-05-07 23:52 | 40.49049 | -91.59196 | 34360 ft | 523 kts | 60° |
| 2026-05-07 23:52 | 40.50497 | -91.54877 | 33865 ft | 519 kts | 60° |
| 2026-05-07 23:53 | 40.51942 | -91.50564 | 33375 ft | 515 kts | 60° |
| 2026-05-07 23:53 | 40.53383 | -91.46263 | 33057 ft | 514 kts | 60° |
| 2026-05-07 23:53 | 40.54824 | -91.41969 | 32937 ft | 514 kts | 60° |
| 2026-05-07 23:53 | 40.56272 | -91.37673 | 32927 ft | 520 kts | 60° |
| 2026-05-07 23:54 | 40.59240 | -91.28973 | 32928 ft | 521 kts | 61° |
| 2026-05-07 23:54 | 40.62205 | -91.20311 | 32930 ft | 521 kts | 60° |
| 2026-05-07 23:55 | 40.65177 | -91.11601 | 32602 ft | 520 kts | 60° |
| 2026-05-07 23:55 | 40.66637 | -91.07305 | 32339 ft | 518 kts | 60° |
| 2026-05-07 23:55 | 40.68096 | -91.03005 | 32075 ft | 518 kts | 60° |
| 2026-05-07 23:56 | 40.69578 | -90.98631 | 31814 ft | 519 kts | 60° |
| 2026-05-07 23:56 | 40.71030 | -90.94339 | 31563 ft | 518 kts | 60° |
| 2026-05-07 23:56 | 40.72503 | -90.89977 | 31308 ft | 520 kts | 60° |
| 2026-05-07 23:56 | 40.73973 | -90.85617 | 31047 ft | 519 kts | 60° |
| 2026-05-07 23:57 | 40.75440 | -90.81257 | 30796 ft | 520 kts | 60° |
| 2026-05-07 23:57 | 40.76884 | -90.76955 | 30537 ft | 520 kts | 60° |
| 2026-05-07 23:57 | 40.78354 | -90.72570 | 30282 ft | 519 kts | 60° |
| 2026-05-07 23:57 | 40.79793 | -90.68269 | 30031 ft | 519 kts | 60° |
| 2026-05-07 23:58 | 40.81247 | -90.63922 | 29773 ft | 522 kts | 60° |
| 2026-05-07 23:58 | 40.82713 | -90.59533 | 29512 ft | 521 kts | 60° |
| 2026-05-07 23:58 | 40.84172 | -90.55159 | 29257 ft | 521 kts | 60° |
| 2026-05-07 23:58 | 40.85636 | -90.50772 | 28999 ft | 520 kts | 60° |
| 2026-05-07 23:59 | 40.87086 | -90.46433 | 28742 ft | 520 kts | 60° |
| 2026-05-07 23:59 | 40.88529 | -90.42104 | 28487 ft | 519 kts | 60° |
| 2026-05-07 23:59 | 40.89980 | -90.37751 | 28230 ft | 521 kts | 60° |
| 2026-05-07 23:59 | 40.91448 | -90.33341 | 27968 ft | 522 kts | 60° |
| 2026-05-08 00:00 | 40.92900 | -90.28968 | 27711 ft | 521 kts | 60° |
| 2026-05-08 00:00 | 40.94357 | -90.24571 | 27451 ft | 521 kts | 60° |
| 2026-05-08 00:00 | 40.95804 | -90.20194 | 27189 ft | 521 kts | 60° |
| 2026-05-08 00:00 | 40.97247 | -90.15822 | 26936 ft | 520 kts | 60° |
| 2026-05-08 00:01 | 40.98677 | -90.11485 | 26576 ft | 520 kts | 60° |
| 2026-05-08 00:01 | 41.00115 | -90.07113 | 26064 ft | 516 kts | 60° |
| 2026-05-08 00:01 | 41.01529 | -90.02799 | 25670 ft | 509 kts | 60° |
| 2026-05-08 00:01 | 41.02935 | -89.98504 | 25308 ft | 511 kts | 60° |
| 2026-05-08 00:02 | 41.04342 | -89.94218 | 24959 ft | 509 kts | 59° |
| 2026-05-08 00:02 | 41.05754 | -89.89928 | 24597 ft | 504 kts | 59° |
| 2026-05-08 00:02 | 41.07133 | -89.85746 | 24242 ft | 502 kts | 59° |
| 2026-05-08 00:02 | 41.08535 | -89.81500 | 23888 ft | 499 kts | 59° |
| 2026-05-08 00:03 | 41.09911 | -89.77331 | 23541 ft | 496 kts | 59° |
| 2026-05-08 00:03 | 41.11288 | -89.73149 | 23205 ft | 493 kts | 59° |
| 2026-05-08 00:03 | 41.12660 | -89.68981 | 22868 ft | 490 kts | 59° |
| 2026-05-08 00:03 | 41.14039 | -89.64881 | 22542 ft | 489 kts | 57° |
| 2026-05-08 00:04 | 41.15588 | -89.60887 | 22212 ft | 484 kts | 52° |
| 2026-05-08 00:04 | 41.17440 | -89.57233 | 21878 ft | 472 kts | 44° |
| 2026-05-08 00:04 | 41.19555 | -89.53954 | 21548 ft | 464 kts | 39° |
| 2026-05-08 00:04 | 41.21758 | -89.50932 | 21218 ft | 458 kts | 36° |
| 2026-05-08 00:05 | 41.24019 | -89.48016 | 20888 ft | 455 kts | 35° |
| 2026-05-08 00:05 | 41.26326 | -89.45121 | 20389 ft | 454 kts | 35° |
| 2026-05-08 00:05 | 41.28610 | -89.42297 | 19853 ft | 447 kts | 35° |
| 2026-05-08 00:05 | 41.30882 | -89.39518 | 19308 ft | 443 kts | 35° |
| 2026-05-08 00:06 | 41.33131 | -89.36772 | 18754 ft | 441 kts | 35° |
| 2026-05-08 00:06 | 41.35383 | -89.34013 | 18190 ft | 437 kts | 36° |
| 2026-05-08 00:06 | 41.37603 | -89.31278 | 17651 ft | 434 kts | 37° |
| 2026-05-08 00:06 | 41.39790 | -89.28566 | 17133 ft | 433 kts | 37° |
| 2026-05-08 00:07 | 41.41964 | -89.25852 | 16635 ft | 429 kts | 37° |
| 2026-05-08 00:07 | 41.44167 | -89.23203 | 16111 ft | 426 kts | 34° |
| 2026-05-08 00:07 | 41.46536 | -89.20866 | 15594 ft | 414 kts | 26° |
| 2026-05-08 00:07 | 41.49025 | -89.19202 | 15114 ft | 398 kts | 15° |
| 2026-05-08 00:08 | 41.51623 | -89.18012 | 14580 ft | 388 kts | 11° |
| 2026-05-08 00:08 | 41.54172 | -89.17065 | 14113 ft | 380 kts | 8° |
| 2026-05-08 00:08 | 41.56723 | -89.16200 | 13615 ft | 373 kts | 8° |
| 2026-05-08 00:08 | 41.59207 | -89.15370 | 13116 ft | 368 kts | 8° |
| 2026-05-08 00:09 | 41.61690 | -89.14525 | 12608 ft | 363 kts | 8° |
| 2026-05-08 00:09 | 41.64094 | -89.13687 | 12139 ft | 357 kts | 8° |
| 2026-05-08 00:09 | 41.66449 | -89.12849 | 12018 ft | 342 kts | 8° |
| 2026-05-08 00:09 | 41.68695 | -89.12035 | 12006 ft | 324 kts | 8° |
| 2026-05-08 00:10 | 41.70806 | -89.11266 | 12007 ft | 307 kts | 8° |
| 2026-05-08 00:10 | 41.72797 | -89.10496 | 12012 ft | 293 kts | 9° |
| 2026-05-08 00:10 | 41.74729 | -89.09591 | 12003 ft | 294 kts | 13° |
| 2026-05-08 00:10 | 41.76630 | -89.08590 | 12008 ft | 296 kts | 14° |
| 2026-05-08 00:11 | 41.78554 | -89.07543 | 12000 ft | 295 kts | 14° |
| 2026-05-08 00:11 | 41.80458 | -89.06512 | 12006 ft | 295 kts | 14° |
| 2026-05-08 00:11 | 41.82316 | -89.05330 | 12008 ft | 300 kts | 22° |
| 2026-05-08 00:11 | 41.84067 | -89.03810 | 12004 ft | 302 kts | 28° |
| 2026-05-08 00:12 | 41.85782 | -89.02124 | 12014 ft | 304 kts | 29° |
| 2026-05-08 00:12 | 41.87447 | -89.00444 | 12012 ft | 304 kts | 30° |
| 2026-05-08 00:12 | 41.89167 | -88.98727 | 12013 ft | 304 kts | 29° |
| 2026-05-08 00:12 | 41.90877 | -88.97052 | 12016 ft | 305 kts | 28° |
| 2026-05-08 00:13 | 41.92575 | -88.95392 | 12013 ft | 305 kts | 31° |
| 2026-05-08 00:13 | 41.93983 | -88.93184 | 12014 ft | 322 kts | 58° |
| 2026-05-08 00:13 | 41.94516 | -88.90261 | 12014 ft | 333 kts | 88° |
| 2026-05-08 00:13 | 41.94191 | -88.87177 | 12017 ft | 336 kts | 103° |
| 2026-05-08 00:14 | 41.93528 | -88.84159 | 11905 ft | 341 kts | 103° |
| 2026-05-08 00:14 | 41.93234 | -88.81021 | 11383 ft | 342 kts | 87° |
| 2026-05-08 00:14 | 41.93425 | -88.77875 | 11022 ft | 335 kts | 78° |
| 2026-05-08 00:14 | 41.93798 | -88.74820 | 10892 ft | 324 kts | 76° |
| 2026-05-08 00:15 | 41.94194 | -88.71854 | 10765 ft | 322 kts | 76° |
| 2026-05-08 00:15 | 41.94556 | -88.68924 | 10607 ft | 317 kts | 77° |
| 2026-05-08 00:15 | 41.94871 | -88.66035 | 10473 ft | 310 kts | 78° |
| 2026-05-08 00:15 | 41.95164 | -88.63139 | 10202 ft | 313 kts | 78° |
| 2026-05-08 00:16 | 41.95487 | -88.60257 | 9709 ft | 316 kts | 76° |
| 2026-05-08 00:16 | 41.95862 | -88.57333 | 9309 ft | 317 kts | 78° |
| 2026-05-08 00:16 | 41.96090 | -88.54457 | 9087 ft | 311 kts | 83° |
| 2026-05-08 00:16 | 41.96167 | -88.51583 | 9033 ft | 304 kts | 86° |
| 2026-05-08 00:17 | 41.96176 | -88.48741 | 9003 ft | 305 kts | 87° |
| 2026-05-08 00:17 | 41.96176 | -88.45869 | 8813 ft | 307 kts | 87° |
| 2026-05-08 00:17 | 41.96193 | -88.43018 | 8377 ft | 310 kts | 86° |
| 2026-05-08 00:17 | 41.96225 | -88.40119 | 7920 ft | 310 kts | 86° |
| 2026-05-08 00:18 | 41.96256 | -88.37226 | 7466 ft | 307 kts | 87° |
| 2026-05-08 00:18 | 41.96281 | -88.34385 | 7015 ft | 304 kts | 88° |
| 2026-05-08 00:18 | 41.96305 | -88.31564 | 6569 ft | 301 kts | 88° |
| 2026-05-08 00:18 | 41.96331 | -88.28759 | 6120 ft | 298 kts | 88° |
| 2026-05-08 00:19 | 41.96353 | -88.26010 | 5677 ft | 295 kts | 88° |
| 2026-05-08 00:19 | 41.96373 | -88.23296 | 5236 ft | 290 kts | 88° |
| 2026-05-08 00:19 | 41.96392 | -88.20618 | 4787 ft | 285 kts | 87° |
| 2026-05-08 00:19 | 41.96410 | -88.17989 | 4381 ft | 278 kts | 87° |
| 2026-05-08 00:20 | 41.96427 | -88.15427 | 3989 ft | 271 kts | 87° |
| 2026-05-08 00:20 | 41.96443 | -88.12960 | 3618 ft | 261 kts | 87° |
| 2026-05-08 00:20 | 41.96458 | -88.10568 | 3262 ft | 252 kts | 86° |
| 2026-05-08 00:20 | 41.96472 | -88.08248 | 2916 ft | 244 kts | 87° |
| 2026-05-08 00:21 | 41.96483 | -88.06006 | 2584 ft | 231 kts | 87° |
| 2026-05-08 00:21 | 41.96495 | -88.03938 | 2291 ft | 212 kts | 87° |
| 2026-05-08 00:21 | 41.96503 | -88.02048 | 1998 ft | 196 kts | 88° |
| 2026-05-08 00:21 | 41.96512 | -88.00307 | 1756 ft | 180 kts | 88° |
| 2026-05-08 00:22 | 41.96522 | -87.98687 | 1511 ft | 167 kts | 88° |
| 2026-05-08 00:22 | 41.96531 | -87.97145 | 1316 ft | 162 kts | 88° |
| 2026-05-08 00:22 | 41.96563 | -87.95645 | 1139 ft | 164 kts | 89° |
| 2026-05-08 00:22 | 41.96567 | -87.94122 | 899 ft | 160 kts | 91° |
| 2026-05-08 00:23 | 41.96572 | -87.92628 | 700 ft | 160 kts | 90° |
| 2026-05-08 00:23 | 41.96572 | -87.91162 | 725 ft | 158 kts | 91° |
| 2026-05-08 00:23 | 41.96560 | -87.89716 | 1212 ft | 157 kts | 90° |
| 2026-05-08 00:23 | 41.96543 | -87.88258 | 1624 ft | 162 kts | 90° |
| 2026-05-08 00:24 | 41.96524 | -87.86689 | 2077 ft | 172 kts | 89° |
| 2026-05-08 00:24 | 41.96511 | -87.85047 | 2536 ft | 184 kts | 87° |
| 2026-05-08 00:24 | 41.96527 | -87.83214 | 2978 ft | 202 kts | 85° |
| 2026-05-08 00:24 | 41.96589 | -87.81297 | 3256 ft | 231 kts | 83° |
| 2026-05-08 00:25 | 41.96678 | -87.79383 | 3529 ft | 256 kts | 83° |